sensor_id;sensor_type;location;lat;lon;timestamp;P1;durP1;ratioP1;P2;durP2;ratioP2
51732;SDS011;39139;53.144;6.244;2022-10-17T00:00:23;4.80;;;2.00;;
51732;SDS011;39139;53.144;6.244;2022-10-17T00:02:49;3.90;;;2.00;;
51732;SDS011;39139;53.144;6.244;2022-10-17T00:05:15;7.68;;;2.20;;
51732;SDS011;39139;53.144;6.244;2022-10-17T00:07:40;4.40;;;1.98;;
51732;SDS011;39139;53.144;6.244;2022-10-17T00:10:06;6.88;;;2.65;;
51732;SDS011;39139;53.144;6.244;2022-10-17T00:12:33;9.65;;;2.10;;
51732;SDS011;39139;53.144;6.244;2022-10-17T00:14:59;6.15;;;1.80;;
51732;SDS011;39139;53.144;6.244;2022-10-17T00:17:26;7.57;;;2.25;;
51732;SDS011;39139;53.144;6.244;2022-10-17T00:19:52;5.88;;;2.28;;
51732;SDS011;39139;53.144;6.244;2022-10-17T00:22:17;8.65;;;2.10;;
51732;SDS011;39139;53.144;6.244;2022-10-17T00:24:43;7.30;;;2.33;;
51732;SDS011;39139;53.144;6.244;2022-10-17T00:27:08;6.38;;;2.45;;
51732;SDS011;39139;53.144;6.244;2022-10-17T00:29:34;9.32;;;2.08;;
51732;SDS011;39139;53.144;6.244;2022-10-17T00:32:01;7.05;;;1.73;;
51732;SDS011;39139;53.144;6.244;2022-10-17T00:34:27;6.07;;;1.80;;
51732;SDS011;39139;53.144;6.244;2022-10-17T00:36:53;3.85;;;1.52;;
51732;SDS011;39139;53.144;6.244;2022-10-17T00:39:19;9.55;;;2.70;;
51732;SDS011;39139;53.144;6.244;2022-10-17T00:41:44;5.82;;;2.33;;
51732;SDS011;39139;53.144;6.244;2022-10-17T00:46:55;8.65;;;2.75;;
51732;SDS011;39139;53.144;6.244;2022-10-17T00:49:22;10.65;;;2.05;;
51732;SDS011;39139;53.144;6.244;2022-10-17T00:51:52;9.70;;;2.70;;
51732;SDS011;39139;53.144;6.244;2022-10-17T00:54:20;11.60;;;2.38;;
51732;SDS011;39139;53.144;6.244;2022-10-17T00:56:49;6.13;;;2.38;;
51732;SDS011;39139;53.144;6.244;2022-10-17T00:59:17;4.72;;;2.47;;
51732;SDS011;39139;53.144;6.244;2022-10-17T01:01:50;6.10;;;2.63;;
51732;SDS011;39139;53.144;6.244;2022-10-17T01:04:23;7.63;;;2.50;;
51732;SDS011;39139;53.144;6.244;2022-10-17T01:06:49;8.48;;;2.40;;
51732;SDS011;39139;53.144;6.244;2022-10-17T01:09:14;9.73;;;2.85;;
51732;SDS011;39139;53.144;6.244;2022-10-17T01:11:44;7.18;;;2.13;;
51732;SDS011;39139;53.144;6.244;2022-10-17T01:14:32;7.25;;;2.83;;
51732;SDS011;39139;53.144;6.244;2022-10-17T01:19:41;6.35;;;2.78;;
51732;SDS011;39139;53.144;6.244;2022-10-17T01:22:29;6.18;;;2.50;;
51732;SDS011;39139;53.144;6.244;2022-10-17T01:25:15;5.22;;;2.47;;
51732;SDS011;39139;53.144;6.244;2022-10-17T01:31:11;6.38;;;2.55;;
51732;SDS011;39139;53.144;6.244;2022-10-17T01:33:42;5.65;;;2.55;;
51732;SDS011;39139;53.144;6.244;2022-10-17T01:36:35;5.90;;;2.50;;
51732;SDS011;39139;53.144;6.244;2022-10-17T01:42:07;5.13;;;3.03;;
51732;SDS011;39139;53.144;6.244;2022-10-17T01:47:22;6.40;;;3.15;;
51732;SDS011;39139;53.144;6.244;2022-10-17T01:49:52;5.07;;;2.38;;
51732;SDS011;39139;53.144;6.244;2022-10-17T01:52:24;6.13;;;3.00;;
51732;SDS011;39139;53.144;6.244;2022-10-17T01:54:54;3.20;;;2.33;;
51732;SDS011;39139;53.144;6.244;2022-10-17T01:57:29;5.28;;;2.40;;
51732;SDS011;39139;53.144;6.244;2022-10-17T02:00:18;5.90;;;2.38;;
51732;SDS011;39139;53.144;6.244;2022-10-17T02:02:47;6.78;;;3.00;;
51732;SDS011;39139;53.144;6.244;2022-10-17T02:05:16;8.48;;;2.75;;
51732;SDS011;39139;53.144;6.244;2022-10-17T02:07:45;6.65;;;2.60;;
51732;SDS011;39139;53.144;6.244;2022-10-17T02:10:14;4.75;;;2.78;;
51732;SDS011;39139;53.144;6.244;2022-10-17T02:12:52;7.22;;;3.13;;
51732;SDS011;39139;53.144;6.244;2022-10-17T02:20:52;5.50;;;2.97;;
51732;SDS011;39139;53.144;6.244;2022-10-17T02:26:19;7.10;;;3.88;;
51732;SDS011;39139;53.144;6.244;2022-10-17T02:29:09;6.63;;;3.15;;
51732;SDS011;39139;53.144;6.244;2022-10-17T02:31:48;4.82;;;2.63;;
51732;SDS011;39139;53.144;6.244;2022-10-17T02:34:35;12.07;;;3.97;;
51732;SDS011;39139;53.144;6.244;2022-10-17T02:37:07;6.15;;;3.58;;
51732;SDS011;39139;53.144;6.244;2022-10-17T02:39:35;11.45;;;3.88;;
51732;SDS011;39139;53.144;6.244;2022-10-17T02:42:06;10.43;;;3.22;;
51732;SDS011;39139;53.144;6.244;2022-10-17T02:44:36;11.63;;;4.78;;
51732;SDS011;39139;53.144;6.244;2022-10-17T02:47:47;8.27;;;4.18;;
51732;SDS011;39139;53.144;6.244;2022-10-17T02:49:56;4.22;;;3.20;;
51732;SDS011;39139;53.144;6.244;2022-10-17T02:55:18;6.38;;;3.88;;
51732;SDS011;39139;53.144;6.244;2022-10-17T02:57:47;6.93;;;4.78;;
51732;SDS011;39139;53.144;6.244;2022-10-17T03:00:18;5.85;;;4.45;;
51732;SDS011;39139;53.144;6.244;2022-10-17T03:02:47;7.80;;;5.55;;
51732;SDS011;39139;53.144;6.244;2022-10-17T03:05:19;8.70;;;4.97;;
51732;SDS011;39139;53.144;6.244;2022-10-17T03:07:49;7.45;;;4.20;;
51732;SDS011;39139;53.144;6.244;2022-10-17T03:10:15;12.23;;;4.57;;
51732;SDS011;39139;53.144;6.244;2022-10-17T03:12:41;7.93;;;5.22;;
51732;SDS011;39139;53.144;6.244;2022-10-17T03:15:07;7.38;;;5.45;;
51732;SDS011;39139;53.144;6.244;2022-10-17T03:17:34;8.73;;;5.40;;
51732;SDS011;39139;53.144;6.244;2022-10-17T03:20:00;8.55;;;5.60;;
51732;SDS011;39139;53.144;6.244;2022-10-17T03:22:26;7.88;;;6.32;;
51732;SDS011;39139;53.144;6.244;2022-10-17T03:24:51;7.60;;;5.70;;
51732;SDS011;39139;53.144;6.244;2022-10-17T03:27:17;6.18;;;5.35;;
51732;SDS011;39139;53.144;6.244;2022-10-17T03:29:43;7.78;;;5.53;;
51732;SDS011;39139;53.144;6.244;2022-10-17T03:32:08;9.38;;;6.15;;
51732;SDS011;39139;53.144;6.244;2022-10-17T03:34:34;7.50;;;6.70;;
51732;SDS011;39139;53.144;6.244;2022-10-17T03:37:00;10.63;;;8.02;;
51732;SDS011;39139;53.144;6.244;2022-10-17T03:39:25;11.75;;;6.57;;
51732;SDS011;39139;53.144;6.244;2022-10-17T03:41:51;10.13;;;8.73;;
51732;SDS011;39139;53.144;6.244;2022-10-17T03:44:17;8.15;;;7.45;;
51732;SDS011;39139;53.144;6.244;2022-10-17T03:46:42;12.20;;;8.50;;
51732;SDS011;39139;53.144;6.244;2022-10-17T03:49:08;10.38;;;8.15;;
51732;SDS011;39139;53.144;6.244;2022-10-17T03:51:35;9.60;;;8.68;;
51732;SDS011;39139;53.144;6.244;2022-10-17T03:54:01;10.02;;;9.02;;
51732;SDS011;39139;53.144;6.244;2022-10-17T03:56:26;13.98;;;10.23;;
51732;SDS011;39139;53.144;6.244;2022-10-17T03:58:52;11.15;;;8.93;;
51732;SDS011;39139;53.144;6.244;2022-10-17T04:01:19;10.02;;;9.10;;
51732;SDS011;39139;53.144;6.244;2022-10-17T04:03:52;11.45;;;9.65;;
51732;SDS011;39139;53.144;6.244;2022-10-17T04:06:19;12.77;;;11.10;;
51732;SDS011;39139;53.144;6.244;2022-10-17T04:08:45;12.40;;;11.13;;
51732;SDS011;39139;53.144;6.244;2022-10-17T04:11:15;14.82;;;11.55;;
51732;SDS011;39139;53.144;6.244;2022-10-17T04:13:42;11.93;;;10.77;;
51732;SDS011;39139;53.144;6.244;2022-10-17T04:16:10;13.35;;;11.95;;
51732;SDS011;39139;53.144;6.244;2022-10-17T04:18:38;13.20;;;12.00;;
51732;SDS011;39139;53.144;6.244;2022-10-17T04:21:04;14.57;;;13.07;;
51732;SDS011;39139;53.144;6.244;2022-10-17T04:23:31;14.25;;;11.77;;
51732;SDS011;39139;53.144;6.244;2022-10-17T04:25:57;17.58;;;13.50;;
51732;SDS011;39139;53.144;6.244;2022-10-17T04:28:24;17.15;;;13.98;;
51732;SDS011;39139;53.144;6.244;2022-10-17T04:31:01;14.45;;;12.95;;
51732;SDS011;39139;53.144;6.244;2022-10-17T04:33:28;15.05;;;13.50;;
51732;SDS011;39139;53.144;6.244;2022-10-17T04:35:57;14.68;;;12.80;;
51732;SDS011;39139;53.144;6.244;2022-10-17T04:38:43;14.70;;;13.27;;
51732;SDS011;39139;53.144;6.244;2022-10-17T04:41:10;18.85;;;14.80;;
51732;SDS011;39139;53.144;6.244;2022-10-17T04:43:38;16.85;;;15.15;;
51732;SDS011;39139;53.144;6.244;2022-10-17T04:46:06;17.90;;;15.93;;
51732;SDS011;39139;53.144;6.244;2022-10-17T04:48:34;19.33;;;14.30;;
51732;SDS011;39139;53.144;6.244;2022-10-17T04:51:00;17.58;;;13.77;;
51732;SDS011;39139;53.144;6.244;2022-10-17T04:53:32;17.35;;;13.25;;
51732;SDS011;39139;53.144;6.244;2022-10-17T04:55:59;18.38;;;14.52;;
51732;SDS011;39139;53.144;6.244;2022-10-17T04:58:27;15.30;;;13.80;;
51732;SDS011;39139;53.144;6.244;2022-10-17T05:00:54;17.77;;;15.03;;
51732;SDS011;39139;53.144;6.244;2022-10-17T05:03:19;16.40;;;14.38;;
51732;SDS011;39139;53.144;6.244;2022-10-17T05:05:45;16.67;;;14.98;;
51732;SDS011;39139;53.144;6.244;2022-10-17T05:08:11;18.55;;;16.42;;
51732;SDS011;39139;53.144;6.244;2022-10-17T05:10:41;16.92;;;15.13;;
51732;SDS011;39139;53.144;6.244;2022-10-17T05:13:10;18.80;;;15.27;;
51732;SDS011;39139;53.144;6.244;2022-10-17T05:15:36;19.15;;;16.52;;
51732;SDS011;39139;53.144;6.244;2022-10-17T05:18:03;19.65;;;17.50;;
51732;SDS011;39139;53.144;6.244;2022-10-17T05:20:29;16.45;;;14.73;;
51732;SDS011;39139;53.144;6.244;2022-10-17T05:22:57;21.08;;;15.00;;
51732;SDS011;39139;53.144;6.244;2022-10-17T05:25:23;20.10;;;15.73;;
51732;SDS011;39139;53.144;6.244;2022-10-17T05:27:49;15.38;;;13.93;;
51732;SDS011;39139;53.144;6.244;2022-10-17T05:30:15;16.60;;;14.85;;
51732;SDS011;39139;53.144;6.244;2022-10-17T05:32:41;18.05;;;16.05;;
51732;SDS011;39139;53.144;6.244;2022-10-17T05:35:07;17.38;;;15.55;;
51732;SDS011;39139;53.144;6.244;2022-10-17T05:37:32;18.45;;;16.40;;
51732;SDS011;39139;53.144;6.244;2022-10-17T05:39:58;19.48;;;15.07;;
51732;SDS011;39139;53.144;6.244;2022-10-17T05:42:24;22.58;;;16.90;;
51732;SDS011;39139;53.144;6.244;2022-10-17T05:44:49;19.77;;;17.00;;
51732;SDS011;39139;53.144;6.244;2022-10-17T05:47:15;17.98;;;16.27;;
51732;SDS011;39139;53.144;6.244;2022-10-17T05:49:40;17.58;;;15.85;;
51732;SDS011;39139;53.144;6.244;2022-10-17T05:52:06;22.58;;;15.88;;
51732;SDS011;39139;53.144;6.244;2022-10-17T05:54:32;17.27;;;15.50;;
51732;SDS011;39139;53.144;6.244;2022-10-17T05:56:58;17.38;;;15.57;;
51732;SDS011;39139;53.144;6.244;2022-10-17T05:59:24;17.92;;;16.10;;
51732;SDS011;39139;53.144;6.244;2022-10-17T06:01:50;20.10;;;15.90;;
51732;SDS011;39139;53.144;6.244;2022-10-17T06:04:16;18.45;;;16.48;;
51732;SDS011;39139;53.144;6.244;2022-10-17T06:06:42;17.42;;;15.68;;
51732;SDS011;39139;53.144;6.244;2022-10-17T06:09:08;17.75;;;15.88;;
51732;SDS011;39139;53.144;6.244;2022-10-17T06:11:34;18.48;;;16.48;;
51732;SDS011;39139;53.144;6.244;2022-10-17T06:14:00;18.10;;;16.45;;
51732;SDS011;39139;53.144;6.244;2022-10-17T06:16:26;23.17;;;15.77;;
51732;SDS011;39139;53.144;6.244;2022-10-17T06:18:51;18.48;;;16.00;;
51732;SDS011;39139;53.144;6.244;2022-10-17T06:21:21;20.75;;;16.55;;
51732;SDS011;39139;53.144;6.244;2022-10-17T06:23:49;19.58;;;16.58;;
51732;SDS011;39139;53.144;6.244;2022-10-17T06:26:16;18.48;;;14.80;;
51732;SDS011;39139;53.144;6.244;2022-10-17T06:28:42;25.67;;;16.77;;
51732;SDS011;39139;53.144;6.244;2022-10-17T06:31:09;16.85;;;14.57;;
51732;SDS011;39139;53.144;6.244;2022-10-17T06:33:36;16.95;;;15.10;;
51732;SDS011;39139;53.144;6.244;2022-10-17T06:36:03;24.02;;;16.45;;
51732;SDS011;39139;53.144;6.244;2022-10-17T06:38:30;16.00;;;14.32;;
51732;SDS011;39139;53.144;6.244;2022-10-17T06:41:05;18.02;;;13.70;;
51732;SDS011;39139;53.144;6.244;2022-10-17T06:43:37;14.25;;;12.85;;
51732;SDS011;39139;53.144;6.244;2022-10-17T06:46:04;18.52;;;14.90;;
51732;SDS011;39139;53.144;6.244;2022-10-17T06:48:31;16.73;;;14.85;;
51732;SDS011;39139;53.144;6.244;2022-10-17T06:51:00;23.35;;;14.77;;
51732;SDS011;39139;53.144;6.244;2022-10-17T06:53:29;16.33;;;13.85;;
51732;SDS011;39139;53.144;6.244;2022-10-17T06:55:56;15.32;;;12.70;;
51732;SDS011;39139;53.144;6.244;2022-10-17T06:58:27;15.35;;;13.40;;
51732;SDS011;39139;53.144;6.244;2022-10-17T07:01:01;16.02;;;14.35;;
51732;SDS011;39139;53.144;6.244;2022-10-17T07:03:28;16.05;;;13.40;;
51732;SDS011;39139;53.144;6.244;2022-10-17T07:05:54;17.98;;;13.75;;
51732;SDS011;39139;53.144;6.244;2022-10-17T07:08:21;15.70;;;12.27;;
51732;SDS011;39139;53.144;6.244;2022-10-17T07:10:46;16.65;;;14.13;;
51732;SDS011;39139;53.144;6.244;2022-10-17T07:13:12;14.75;;;13.10;;
51732;SDS011;39139;53.144;6.244;2022-10-17T07:15:38;14.88;;;13.30;;
51732;SDS011;39139;53.144;6.244;2022-10-17T07:18:04;15.50;;;12.95;;
51732;SDS011;39139;53.144;6.244;2022-10-17T07:20:30;13.73;;;12.30;;
51732;SDS011;39139;53.144;6.244;2022-10-17T07:22:56;13.18;;;11.93;;
51732;SDS011;39139;53.144;6.244;2022-10-17T07:25:22;13.18;;;11.75;;
51732;SDS011;39139;53.144;6.244;2022-10-17T07:27:51;14.25;;;11.63;;
51732;SDS011;39139;53.144;6.244;2022-10-17T07:32:43;22.17;;;13.18;;
51732;SDS011;39139;53.144;6.244;2022-10-17T07:35:09;16.05;;;13.32;;
51732;SDS011;39139;53.144;6.244;2022-10-17T07:37:36;15.75;;;12.70;;
51732;SDS011;39139;53.144;6.244;2022-10-17T07:40:03;13.27;;;11.60;;
51732;SDS011;39139;53.144;6.244;2022-10-17T07:42:30;13.57;;;11.90;;
51732;SDS011;39139;53.144;6.244;2022-10-17T07:44:57;14.85;;;11.68;;
51732;SDS011;39139;53.144;6.244;2022-10-17T07:47:22;16.27;;;12.07;;
51732;SDS011;39139;53.144;6.244;2022-10-17T07:49:48;14.98;;;12.00;;
51732;SDS011;39139;53.144;6.244;2022-10-17T07:52:14;13.23;;;11.63;;
51732;SDS011;39139;53.144;6.244;2022-10-17T07:54:40;15.77;;;12.48;;
51732;SDS011;39139;53.144;6.244;2022-10-17T07:57:06;13.13;;;11.10;;
51732;SDS011;39139;53.144;6.244;2022-10-17T07:59:33;11.75;;;10.65;;
51732;SDS011;39139;53.144;6.244;2022-10-17T08:01:59;14.00;;;11.50;;
51732;SDS011;39139;53.144;6.244;2022-10-17T08:04:25;12.77;;;11.48;;
51732;SDS011;39139;53.144;6.244;2022-10-17T08:06:52;12.75;;;10.88;;
51732;SDS011;39139;53.144;6.244;2022-10-17T08:09:18;11.98;;;10.77;;
51732;SDS011;39139;53.144;6.244;2022-10-17T08:11:44;14.50;;;11.57;;
51732;SDS011;39139;53.144;6.244;2022-10-17T08:14:13;11.50;;;10.40;;
51732;SDS011;39139;53.144;6.244;2022-10-17T08:16:40;16.23;;;11.90;;
51732;SDS011;39139;53.144;6.244;2022-10-17T08:19:07;10.95;;;9.85;;
51732;SDS011;39139;53.144;6.244;2022-10-17T08:21:37;10.63;;;9.57;;
51732;SDS011;39139;53.144;6.244;2022-10-17T08:24:03;12.85;;;9.57;;
51732;SDS011;39139;53.144;6.244;2022-10-17T08:26:29;11.00;;;9.07;;
51732;SDS011;39139;53.144;6.244;2022-10-17T08:28:55;10.00;;;9.05;;
51732;SDS011;39139;53.144;6.244;2022-10-17T08:31:21;10.68;;;8.52;;
51732;SDS011;39139;53.144;6.244;2022-10-17T08:33:47;12.52;;;9.25;;
51732;SDS011;39139;53.144;6.244;2022-10-17T08:36:14;12.40;;;9.70;;
51732;SDS011;39139;53.144;6.244;2022-10-17T08:38:42;9.45;;;8.55;;
51732;SDS011;39139;53.144;6.244;2022-10-17T08:41:33;11.48;;;9.23;;
51732;SDS011;39139;53.144;6.244;2022-10-17T08:44:24;12.23;;;8.60;;
51732;SDS011;39139;53.144;6.244;2022-10-17T08:47:00;13.65;;;9.32;;
51732;SDS011;39139;53.144;6.244;2022-10-17T08:49:39;10.07;;;8.48;;
51732;SDS011;39139;53.144;6.244;2022-10-17T08:52:14;10.05;;;9.02;;
51732;SDS011;39139;53.144;6.244;2022-10-17T08:54:48;12.30;;;8.90;;
51732;SDS011;39139;53.144;6.244;2022-10-17T08:57:15;11.35;;;9.43;;
51732;SDS011;39139;53.144;6.244;2022-10-17T08:59:42;11.63;;;9.43;;
51732;SDS011;39139;53.144;6.244;2022-10-17T09:05:29;11.77;;;8.90;;
51732;SDS011;39139;53.144;6.244;2022-10-17T09:16:32;10.57;;;9.32;;
51732;SDS011;39139;53.144;6.244;2022-10-17T09:19:27;10.95;;;9.40;;
51732;SDS011;39139;53.144;6.244;2022-10-17T09:22:03;10.07;;;9.10;;
51732;SDS011;39139;53.144;6.244;2022-10-17T09:27:26;12.15;;;9.30;;
51732;SDS011;39139;53.144;6.244;2022-10-17T09:33:10;14.40;;;8.98;;
51732;SDS011;39139;53.144;6.244;2022-10-17T09:35:39;12.32;;;10.13;;
51732;SDS011;39139;53.144;6.244;2022-10-17T09:38:09;11.40;;;9.10;;
51732;SDS011;39139;53.144;6.244;2022-10-17T09:40:41;12.18;;;9.38;;
51732;SDS011;39139;53.144;6.244;2022-10-17T09:43:09;12.50;;;11.20;;
51732;SDS011;39139;53.144;6.244;2022-10-17T09:45:44;11.75;;;9.80;;
51732;SDS011;39139;53.144;6.244;2022-10-17T09:48:27;13.55;;;11.25;;
51732;SDS011;39139;53.144;6.244;2022-10-17T09:51:14;11.50;;;10.30;;
51732;SDS011;39139;53.144;6.244;2022-10-17T09:53:45;12.35;;;10.80;;
51732;SDS011;39139;53.144;6.244;2022-10-17T09:56:16;14.10;;;11.25;;
51732;SDS011;39139;53.144;6.244;2022-10-17T09:58:44;12.63;;;10.60;;
51732;SDS011;39139;53.144;6.244;2022-10-17T10:03:47;10.75;;;9.68;;
51732;SDS011;39139;53.144;6.244;2022-10-17T10:06:17;12.05;;;10.82;;
51732;SDS011;39139;53.144;6.244;2022-10-17T10:08:48;18.70;;;11.75;;
51732;SDS011;39139;53.144;6.244;2022-10-17T10:11:16;12.95;;;11.60;;
51732;SDS011;39139;53.144;6.244;2022-10-17T10:13:44;11.48;;;10.15;;
51732;SDS011;39139;53.144;6.244;2022-10-17T10:18:48;12.80;;;10.65;;
51732;SDS011;39139;53.144;6.244;2022-10-17T10:21:16;11.88;;;10.60;;
51732;SDS011;39139;53.144;6.244;2022-10-17T10:23:45;12.02;;;11.02;;
51732;SDS011;39139;53.144;6.244;2022-10-17T10:26:32;10.95;;;9.88;;
51732;SDS011;39139;53.144;6.244;2022-10-17T10:29:54;11.27;;;10.10;;
51732;SDS011;39139;53.144;6.244;2022-10-17T10:31:56;12.32;;;10.45;;
51732;SDS011;39139;53.144;6.244;2022-10-17T10:34:31;11.68;;;10.25;;
51732;SDS011;39139;53.144;6.244;2022-10-17T10:37:01;12.98;;;11.38;;
51732;SDS011;39139;53.144;6.244;2022-10-17T10:39:36;11.98;;;10.85;;
51732;SDS011;39139;53.144;6.244;2022-10-17T10:42:20;14.57;;;10.80;;
51732;SDS011;39139;53.144;6.244;2022-10-17T10:44:49;11.73;;;10.00;;
51732;SDS011;39139;53.144;6.244;2022-10-17T10:47:18;10.75;;;9.77;;
51732;SDS011;39139;53.144;6.244;2022-10-17T10:49:44;11.80;;;10.57;;
51732;SDS011;39139;53.144;6.244;2022-10-17T10:52:14;12.23;;;10.95;;
51732;SDS011;39139;53.144;6.244;2022-10-17T10:54:54;14.55;;;9.90;;
51732;SDS011;39139;53.144;6.244;2022-10-17T10:57:28;14.45;;;11.48;;
51732;SDS011;39139;53.144;6.244;2022-10-17T11:05:24;14.15;;;10.02;;
51732;SDS011;39139;53.144;6.244;2022-10-17T11:08:33;13.68;;;10.18;;
51732;SDS011;39139;53.144;6.244;2022-10-17T11:11:16;14.38;;;12.02;;
51732;SDS011;39139;53.144;6.244;2022-10-17T11:13:57;12.75;;;11.43;;
51732;SDS011;39139;53.144;6.244;2022-10-17T11:19:26;11.45;;;10.35;;
51732;SDS011;39139;53.144;6.244;2022-10-17T11:24:55;12.00;;;10.27;;
51732;SDS011;39139;53.144;6.244;2022-10-17T11:27:25;10.73;;;9.63;;
51732;SDS011;39139;53.144;6.244;2022-10-17T11:29:53;15.80;;;10.30;;
51732;SDS011;39139;53.144;6.244;2022-10-17T11:32:36;11.68;;;10.50;;
51732;SDS011;39139;53.144;6.244;2022-10-17T11:35:16;13.68;;;9.80;;
51732;SDS011;39139;53.144;6.244;2022-10-17T11:37:46;10.73;;;9.68;;
51732;SDS011;39139;53.144;6.244;2022-10-17T11:40:30;10.45;;;9.55;;
51732;SDS011;39139;53.144;6.244;2022-10-17T11:43:04;16.67;;;9.90;;
51732;SDS011;39139;53.144;6.244;2022-10-17T11:45:39;12.07;;;9.95;;
51732;SDS011;39139;53.144;6.244;2022-10-17T11:48:12;9.27;;;8.38;;
51732;SDS011;39139;53.144;6.244;2022-10-17T11:51:11;8.23;;;7.50;;
51732;SDS011;39139;53.144;6.244;2022-10-17T11:53:55;9.02;;;8.20;;
51732;SDS011;39139;53.144;6.244;2022-10-17T11:56:36;8.88;;;8.05;;
51732;SDS011;39139;53.144;6.244;2022-10-17T12:02:13;8.32;;;7.32;;
51732;SDS011;39139;53.144;6.244;2022-10-17T12:08:29;11.45;;;7.82;;
51732;SDS011;39139;53.144;6.244;2022-10-17T12:11:47;9.80;;;7.25;;
51732;SDS011;39139;53.144;6.244;2022-10-17T12:14:00;8.43;;;7.65;;
51732;SDS011;39139;53.144;6.244;2022-10-17T12:16:35;8.15;;;7.03;;
51732;SDS011;39139;53.144;6.244;2022-10-17T12:24:36;8.82;;;6.97;;
51732;SDS011;39139;53.144;6.244;2022-10-17T12:32:30;6.07;;;5.40;;
51732;SDS011;39139;53.144;6.244;2022-10-17T12:34:56;6.20;;;5.50;;
51732;SDS011;39139;53.144;6.244;2022-10-17T12:38:24;6.25;;;5.40;;
51732;SDS011;39139;53.144;6.244;2022-10-17T12:42:59;6.55;;;5.20;;
51732;SDS011;39139;53.144;6.244;2022-10-17T12:56:01;5.70;;;4.13;;
51732;SDS011;39139;53.144;6.244;2022-10-17T12:58:27;4.97;;;3.83;;
51732;SDS011;39139;53.144;6.244;2022-10-17T13:00:55;14.38;;;5.82;;
51732;SDS011;39139;53.144;6.244;2022-10-17T13:03:24;6.95;;;4.05;;
51732;SDS011;39139;53.144;6.244;2022-10-17T13:08:33;10.30;;;3.53;;
51732;SDS011;39139;53.144;6.244;2022-10-17T13:11:02;4.72;;;3.90;;
51732;SDS011;39139;53.144;6.244;2022-10-17T13:14:03;6.07;;;3.42;;
51732;SDS011;39139;53.144;6.244;2022-10-17T13:16:32;4.72;;;3.00;;
51732;SDS011;39139;53.144;6.244;2022-10-17T13:19:01;4.47;;;3.33;;
51732;SDS011;39139;53.144;6.244;2022-10-17T13:21:28;7.00;;;3.20;;
51732;SDS011;39139;53.144;6.244;2022-10-17T13:23:54;6.63;;;3.80;;
51732;SDS011;39139;53.144;6.244;2022-10-17T13:26:21;3.30;;;2.28;;
51732;SDS011;39139;53.144;6.244;2022-10-17T13:29:05;2.95;;;2.40;;
51732;SDS011;39139;53.144;6.244;2022-10-17T13:31:42;3.08;;;2.83;;
51732;SDS011;39139;53.144;6.244;2022-10-17T13:34:16;3.45;;;2.38;;
51732;SDS011;39139;53.144;6.244;2022-10-17T13:36:53;3.60;;;2.50;;
51732;SDS011;39139;53.144;6.244;2022-10-17T13:39:24;3.80;;;3.20;;
51732;SDS011;39139;53.144;6.244;2022-10-17T13:41:59;3.13;;;2.38;;
51732;SDS011;39139;53.144;6.244;2022-10-17T13:44:26;3.58;;;2.33;;
51732;SDS011;39139;53.144;6.244;2022-10-17T13:46:58;3.03;;;2.53;;
51732;SDS011;39139;53.144;6.244;2022-10-17T13:51:55;2.97;;;2.65;;
51732;SDS011;39139;53.144;6.244;2022-10-17T13:57:02;4.45;;;2.85;;
51732;SDS011;39139;53.144;6.244;2022-10-17T13:59:36;5.28;;;3.58;;
51732;SDS011;39139;53.144;6.244;2022-10-17T14:02:03;3.78;;;3.00;;
51732;SDS011;39139;53.144;6.244;2022-10-17T14:04:36;5.50;;;3.40;;
51732;SDS011;39139;53.144;6.244;2022-10-17T14:07:02;6.63;;;3.42;;
51732;SDS011;39139;53.144;6.244;2022-10-17T14:09:29;3.15;;;2.85;;
51732;SDS011;39139;53.144;6.244;2022-10-17T14:11:57;6.63;;;2.78;;
51732;SDS011;39139;53.144;6.244;2022-10-17T14:14:25;4.40;;;3.10;;
51732;SDS011;39139;53.144;6.244;2022-10-17T14:16:52;4.30;;;2.80;;
51732;SDS011;39139;53.144;6.244;2022-10-17T14:19:31;3.40;;;2.30;;
51732;SDS011;39139;53.144;6.244;2022-10-17T14:24:48;4.40;;;2.50;;
51732;SDS011;39139;53.144;6.244;2022-10-17T14:27:24;6.85;;;2.40;;
51732;SDS011;39139;53.144;6.244;2022-10-17T14:29:59;5.07;;;2.00;;
51732;SDS011;39139;53.144;6.244;2022-10-17T14:32:28;2.97;;;2.10;;
51732;SDS011;39139;53.144;6.244;2022-10-17T14:34:58;5.32;;;2.55;;
51732;SDS011;39139;53.144;6.244;2022-10-17T14:39:52;2.75;;;1.83;;
51732;SDS011;39139;53.144;6.244;2022-10-17T14:42:20;5.30;;;1.80;;
51732;SDS011;39139;53.144;6.244;2022-10-17T14:44:50;1.77;;;1.52;;
51732;SDS011;39139;53.144;6.244;2022-10-17T14:47:23;3.95;;;1.65;;
51732;SDS011;39139;53.144;6.244;2022-10-17T14:50:01;3.70;;;1.83;;
51732;SDS011;39139;53.144;6.244;2022-10-17T14:52:32;4.60;;;1.90;;
51732;SDS011;39139;53.144;6.244;2022-10-17T14:54:59;3.25;;;1.60;;
51732;SDS011;39139;53.144;6.244;2022-10-17T14:57:44;4.20;;;1.70;;
51732;SDS011;39139;53.144;6.244;2022-10-17T15:00:14;3.22;;;1.60;;
51732;SDS011;39139;53.144;6.244;2022-10-17T15:02:41;4.25;;;1.60;;
51732;SDS011;39139;53.144;6.244;2022-10-17T15:05:07;3.58;;;2.10;;
51732;SDS011;39139;53.144;6.244;2022-10-17T15:07:32;2.80;;;1.45;;
51732;SDS011;39139;53.144;6.244;2022-10-17T15:09:58;3.58;;;1.52;;
51732;SDS011;39139;53.144;6.244;2022-10-17T15:12:24;3.67;;;1.90;;
51732;SDS011;39139;53.144;6.244;2022-10-17T15:14:50;1.55;;;1.35;;
51732;SDS011;39139;53.144;6.244;2022-10-17T15:17:19;4.93;;;1.77;;
51732;SDS011;39139;53.144;6.244;2022-10-17T15:19:52;4.95;;;1.90;;
51732;SDS011;39139;53.144;6.244;2022-10-17T15:22:18;7.03;;;2.00;;
51732;SDS011;39139;53.144;6.244;2022-10-17T15:24:44;8.95;;;1.90;;
51732;SDS011;39139;53.144;6.244;2022-10-17T15:29:43;4.03;;;1.70;;
51732;SDS011;39139;53.144;6.244;2022-10-17T15:32:09;2.67;;;1.45;;
51732;SDS011;39139;53.144;6.244;2022-10-17T15:34:35;5.72;;;2.15;;
51732;SDS011;39139;53.144;6.244;2022-10-17T15:37:01;3.05;;;2.50;;
51732;SDS011;39139;53.144;6.244;2022-10-17T15:39:28;4.22;;;2.03;;
51732;SDS011;39139;53.144;6.244;2022-10-17T15:41:53;3.35;;;2.33;;
51732;SDS011;39139;53.144;6.244;2022-10-17T15:44:19;3.03;;;2.30;;
51732;SDS011;39139;53.144;6.244;2022-10-17T15:46:45;3.70;;;2.80;;
51732;SDS011;39139;53.144;6.244;2022-10-17T15:49:11;5.38;;;2.20;;
51732;SDS011;39139;53.144;6.244;2022-10-17T15:51:38;3.92;;;2.20;;
51732;SDS011;39139;53.144;6.244;2022-10-17T15:54:05;5.63;;;2.40;;
51732;SDS011;39139;53.144;6.244;2022-10-17T15:56:31;2.47;;;1.83;;
51732;SDS011;39139;53.144;6.244;2022-10-17T15:59:13;6.80;;;2.13;;
51732;SDS011;39139;53.144;6.244;2022-10-17T16:01:41;3.42;;;1.88;;
51732;SDS011;39139;53.144;6.244;2022-10-17T16:04:11;5.38;;;2.40;;
51732;SDS011;39139;53.144;6.244;2022-10-17T16:06:39;3.83;;;2.20;;
51732;SDS011;39139;53.144;6.244;2022-10-17T16:09:05;5.22;;;2.53;;
51732;SDS011;39139;53.144;6.244;2022-10-17T16:11:34;2.30;;;2.10;;
51732;SDS011;39139;53.144;6.244;2022-10-17T16:14:03;4.88;;;2.08;;
51732;SDS011;39139;53.144;6.244;2022-10-17T16:16:34;5.95;;;2.40;;
51732;SDS011;39139;53.144;6.244;2022-10-17T16:18:59;2.90;;;2.25;;
51732;SDS011;39139;53.144;6.244;2022-10-17T16:21:27;5.28;;;2.40;;
51732;SDS011;39139;53.144;6.244;2022-10-17T16:23:55;15.02;;;2.80;;
51732;SDS011;39139;53.144;6.244;2022-10-17T16:26:21;4.82;;;2.38;;
51732;SDS011;39139;53.144;6.244;2022-10-17T16:28:47;5.78;;;2.92;;
51732;SDS011;39139;53.144;6.244;2022-10-17T16:31:16;3.58;;;2.50;;
51732;SDS011;39139;53.144;6.244;2022-10-17T16:33:47;3.30;;;2.50;;
51732;SDS011;39139;53.144;6.244;2022-10-17T16:36:16;3.63;;;2.35;;
51732;SDS011;39139;53.144;6.244;2022-10-17T16:38:42;4.43;;;2.55;;
51732;SDS011;39139;53.144;6.244;2022-10-17T16:41:20;5.57;;;2.63;;